Weather at Double V Ranch Airport

Public forecast

Using degrees Fahrenheit for public forecast. Weather courtesy of forecast.io.

Closest aviation weather report (METAR) to Double V Ranch Airport

Closest report is Roswell Air Center Airport, 49.2 nm (91.2 km) S. Retrieved 2021/12/01 11:51 UTC (53 minutes ago):

KROW 011151Z AUTO 26004KT 10SM CLR 02/M06 A3015 RMK AO2 SLP184 T00171056 10089 20017 58001

Closest aviation forecast (TAF) to Double V Ranch Airport

Closest forecast is Roswell Air Center Airport, 49.2 nm (91.2 km) S. Retrieved 2021/12/01 12:27 UTC (17 minutes ago):

TAF KROW 011124Z 0112/0212 VRB05KT P6SM FEW250